Time;durP1;ratioP1;P1;durP2;ratioP2;P2;SDS_P1;SDS_P2;PMS_P1;PMS_P2;Temp;Humidity;BMP_temperature;BMP_pressure;BME280_temperature;BME280_humidity;BME280_pressure;Samples;Min_cycle;Max_cycle;Signal;HPM_P1;HPM_P2
2023/07/26 00:00:57;;;;;;;71.53;64.13;;;;;;;;;;4964782;28;20057;-67
2023/07/26 00:03:24;;;;;;;69.45;63.13;;;;;;;;;;4991522;28;20069;-66
2023/07/26 00:05:51;;;;;;;66.05;59.47;;;;;;;;;;4970242;28;20129;-68
2023/07/26 00:08:18;;;;;;;79.72;63.42;;;;;;;;;;4991030;28;20054;-65
2023/07/26 00:10:46;;;;;;;70.28;63.50;;;;;;;;;;4992198;28;20486;-65
2023/07/26 00:13:15;;;;;;;81.85;66.90;;;;;;;;;;4958071;28;20077;-65
2023/07/26 00:15:42;;;;;;;62.92;57.55;;;;;;;;;;4987818;28;20057;-65
2023/07/26 00:18:09;;;;;;;73.75;66.28;;;;;;;;;;4991446;28;20100;-65
2023/07/26 00:20:35;;;;;;;69.43;61.88;;;;;;;;;;4966942;28;20397;-66
2023/07/26 00:23:02;;;;;;;122.95;69.80;;;;;;;;;;4991096;28;20046;-66
2023/07/26 00:25:29;;;;;;;64.05;58.17;;;;;;;;;;4991762;28;20050;-69
2023/07/26 00:27:56;;;;;;;71.07;64.25;;;;;;;;;;4966410;28;20050;-65
2023/07/26 00:30:23;;;;;;;64.95;58.83;;;;;;;;;;4965917;28;20130;-66
2023/07/26 00:32:49;;;;;;;70.30;59.22;;;;;;;;;;4973921;28;20061;-66
2023/07/26 00:35:21;;;;;;;81.13;68.45;;;;;;;;;;4982489;28;20069;-65
2023/07/26 00:37:48;;;;;;;69.22;61.92;;;;;;;;;;4992104;28;20400;-65
2023/07/26 00:40:17;;;;;;;61.75;56.75;;;;;;;;;;4973559;28;20134;-65
2023/07/26 00:42:44;;;;;;;68.03;59.35;;;;;;;;;;4969725;28;20139;-66
2023/07/26 00:45:11;;;;;;;66.65;59.90;;;;;;;;;;4980509;28;20043;-67
2023/07/26 00:47:38;;;;;;;68.13;60.95;;;;;;;;;;4966596;28;20494;-66
2023/07/26 00:50:05;;;;;;;87.72;63.83;;;;;;;;;;4991442;28;20038;-65
2023/07/26 00:52:33;;;;;;;68.65;58.85;;;;;;;;;;4972399;28;20428;-66
2023/07/26 00:55:02;;;;;;;76.68;63.80;;;;;;;;;;4970963;28;20051;-67
2023/07/26 00:57:29;;;;;;;64.18;58.53;;;;;;;;;;4991052;28;20396;-65
2023/07/26 00:59:56;;;;;;;69.80;62.33;;;;;;;;;;4966454;28;20156;-64
2023/07/26 01:02:23;;;;;;;69.45;62.25;;;;;;;;;;4973498;28;20412;-65
2023/07/26 01:04:51;;;;;;;81.00;58.33;;;;;;;;;;4991697;28;20444;-65
2023/07/26 01:07:26;;;;;;;62.25;55.95;;;;;;;;;;4965800;28;20050;-65
2023/07/26 01:10:00;;;;;;;64.47;57.58;;;;;;;;;;4987097;28;20686;-65
2023/07/26 01:12:33;;;;;;;61.80;55.28;;;;;;;;;;4991045;28;20450;-65
2023/07/26 01:15:07;;;;;;;80.43;55.58;;;;;;;;;;4981845;28;20374;-67
2023/07/26 01:17:34;;;;;;;64.75;57.97;;;;;;;;;;4973149;28;20043;-65
2023/07/26 01:20:01;;;;;;;104.35;59.22;;;;;;;;;;4973885;28;20411;-66
2023/07/26 01:22:28;;;;;;;71.07;60.72;;;;;;;;;;4992614;28;20053;-67
2023/07/26 01:24:56;;;;;;;73.43;63.47;;;;;;;;;;4994380;28;20055;-65
2023/07/26 01:27:24;;;;;;;71.07;63.72;;;;;;;;;;4961520;28;20503;-65
2023/07/26 01:29:55;;;;;;;70.25;61.63;;;;;;;;;;4976208;28;20042;-66
2023/07/26 01:32:23;;;;;;;81.57;64.43;;;;;;;;;;4960392;28;20046;-65
2023/07/26 01:34:50;;;;;;;63.20;57.13;;;;;;;;;;4995349;28;20054;-67
2023/07/26 01:37:18;;;;;;;76.03;60.60;;;;;;;;;;4976317;28;20038;-65
2023/07/26 01:39:46;;;;;;;61.45;55.20;;;;;;;;;;4960747;28;20138;-64
2023/07/26 01:42:13;;;;;;;65.90;59.00;;;;;;;;;;4993937;28;20046;-64
2023/07/26 01:44:40;;;;;;;68.57;61.95;;;;;;;;;;4993616;28;20097;-65
2023/07/26 01:47:07;;;;;;;97.35;66.35;;;;;;;;;;4976293;28;20038;-64
2023/07/26 01:49:35;;;;;;;62.35;56.88;;;;;;;;;;4982892;28;20578;-65
2023/07/26 01:52:02;;;;;;;66.15;59.35;;;;;;;;;;4994016;28;20399;-65
2023/07/26 01:54:29;;;;;;;72.68;66.00;;;;;;;;;;4993903;28;20081;-65
2023/07/26 01:56:56;;;;;;;64.25;58.00;;;;;;;;;;4971112;28;20472;-64
2023/07/26 01:59:23;;;;;;;81.25;66.75;;;;;;;;;;4976021;28;20050;-65
2023/07/26 02:01:50;;;;;;;126.75;72.38;;;;;;;;;;5063717;23;20085;-70
2023/07/26 02:04:17;;;;;;;71.07;63.83;;;;;;;;;;4994070;28;20069;-63
2023/07/26 02:06:44;;;;;;;72.72;65.50;;;;;;;;;;5003888;28;20133;-64
2023/07/26 02:09:11;;;;;;;79.90;62.40;;;;;;;;;;4995474;28;20100;-66
2023/07/26 02:11:38;;;;;;;68.13;60.95;;;;;;;;;;4995418;28;20145;-63
2023/07/26 02:14:04;;;;;;;111.90;73.40;;;;;;;;;;5012863;28;20116;-63
2023/07/26 02:16:31;;;;;;;66.30;60.47;;;;;;;;;;5012625;28;20104;-63
2023/07/26 02:18:58;;;;;;;68.10;62.33;;;;;;;;;;5012430;28;20049;-63
2023/07/26 02:21:25;;;;;;;71.63;65.90;;;;;;;;;;5012521;28;20045;-63
2023/07/26 02:23:52;;;;;;;73.40;66.22;;;;;;;;;;5012764;28;20045;-63
2023/07/26 02:26:18;;;;;;;82.10;64.28;;;;;;;;;;5012318;28;20487;-63
2023/07/26 02:28:45;;;;;;;70.93;64.10;;;;;;;;;;4996257;28;20050;-63
2023/07/26 02:31:12;;;;;;;74.60;67.65;;;;;;;;;;4993616;28;20495;-63
2023/07/26 02:33:39;;;;;;;63.75;58.88;;;;;;;;;;5009991;28;20042;-65
2023/07/26 02:36:06;;;;;;;119.80;71.55;;;;;;;;;;5012212;28;20038;-62
2023/07/26 02:38:32;;;;;;;67.40;60.88;;;;;;;;;;5012328;28;20144;-63
2023/07/26 02:40:59;;;;;;;66.50;59.90;;;;;;;;;;4993309;28;20133;-64
2023/07/26 02:43:26;;;;;;;76.35;68.93;;;;;;;;;;5011485;28;20365;-63
2023/07/26 02:46:06;;;;;;;65.43;60.30;;;;;;;;;;5012121;28;20065;-63
2023/07/26 02:48:33;;;;;;;68.22;62.60;;;;;;;;;;4990237;28;20475;-63
2023/07/26 02:51:00;;;;;;;84.15;66.60;;;;;;;;;;5011995;28;20033;-65
2023/07/26 02:53:26;;;;;;;496.45;100.00;;;;;;;;;;4978351;28;20038;-63
2023/07/26 02:55:53;;;;;;;96.35;65.97;;;;;;;;;;4995548;28;20088;-64
2023/07/26 02:58:20;;;;;;;73.25;65.55;;;;;;;;;;4993943;28;20050;-65
2023/07/26 03:00:53;;;;;;;68.68;60.70;;;;;;;;;;5002883;28;20042;-65
2023/07/26 03:03:20;;;;;;;76.63;68.38;;;;;;;;;;5011850;28;20062;-63
2023/07/26 03:05:47;;;;;;;66.85;59.78;;;;;;;;;;5002225;28;20056;-63
2023/07/26 03:08:14;;;;;;;124.15;74.63;;;;;;;;;;5010690;28;20046;-66
2023/07/26 03:10:41;;;;;;;68.82;62.45;;;;;;;;;;5011412;28;20466;-64
2023/07/26 03:13:08;;;;;;;72.15;62.55;;;;;;;;;;5011823;28;20092;-65
2023/07/26 03:15:38;;;;;;;68.22;62.72;;;;;;;;;;5011762;28;20053;-63
2023/07/26 03:18:05;;;;;;;65.82;60.33;;;;;;;;;;4993748;28;20038;-63
2023/07/26 03:20:31;;;;;;;69.25;61.40;;;;;;;;;;5011390;28;20108;-64
2023/07/26 03:22:59;;;;;;;73.30;62.45;;;;;;;;;;5012533;28;20045;-64
2023/07/26 03:25:25;;;;;;;65.63;59.38;;;;;;;;;;5001924;28;20070;-64
2023/07/26 03:27:53;;;;;;;69.13;62.13;;;;;;;;;;5003593;28;20537;-64
2023/07/26 03:30:19;;;;;;;72.70;65.63;;;;;;;;;;5002697;28;20073;-63
2023/07/26 03:32:46;;;;;;;81.82;56.42;;;;;;;;;;5002448;28;20443;-63
2023/07/26 03:35:13;;;;;;;122.97;72.18;;;;;;;;;;5011549;28;20121;-62
2023/07/26 03:37:40;;;;;;;63.45;58.08;;;;;;;;;;4997573;28;20089;-67
2023/07/26 03:40:07;;;;;;;66.53;60.38;;;;;;;;;;5003131;28;20076;-65
2023/07/26 03:42:34;;;;;;;77.95;69.60;;;;;;;;;;5009804;28;20517;-62
2023/07/26 03:45:01;;;;;;;69.45;62.67;;;;;;;;;;5011000;28;20383;-63
2023/07/26 03:47:28;;;;;;;66.22;59.72;;;;;;;;;;5009333;28;20042;-64
2023/07/26 03:49:55;;;;;;;72.95;65.35;;;;;;;;;;5012297;28;20046;-63
2023/07/26 03:52:22;;;;;;;71.93;64.97;;;;;;;;;;4992932;28;20137;-62
2023/07/26 03:54:49;;;;;;;65.60;60.65;;;;;;;;;;5011052;28;20068;-63
2023/07/26 03:57:15;;;;;;;67.47;60.58;;;;;;;;;;5009679;28;20632;-64
2023/07/26 03:59:42;;;;;;;71.97;64.72;;;;;;;;;;4991637;28;20383;-64
2023/07/26 04:02:10;;;;;;;101.78;70.35;;;;;;;;;;5009733;28;20049;-63
2023/07/26 04:04:37;;;;;;;67.20;61.33;;;;;;;;;;4990093;28;20053;-63
2023/07/26 04:07:04;;;;;;;71.95;65.35;;;;;;;;;;5007869;28;20072;-63
2023/07/26 04:09:31;;;;;;;67.18;61.22;;;;;;;;;;5004294;28;20054;-63
2023/07/26 04:11:58;;;;;;;74.07;67.45;;;;;;;;;;4993535;28;20041;-65
2023/07/26 04:14:25;;;;;;;79.95;70.45;;;;;;;;;;5009580;28;20380;-64
2023/07/26 04:16:52;;;;;;;66.15;59.22;;;;;;;;;;5012183;28;20403;-64
2023/07/26 04:19:19;;;;;;;74.97;68.68;;;;;;;;;;5008953;28;20057;-63
2023/07/26 04:21:45;;;;;;;72.35;65.53;;;;;;;;;;5011162;28;20496;-63
2023/07/26 04:24:12;;;;;;;79.40;72.18;;;;;;;;;;4993168;28;20042;-64
2023/07/26 04:26:42;;;;;;;80.25;71.78;;;;;;;;;;4992968;28;20044;-68
2023/07/26 04:29:09;;;;;;;132.70;81.95;;;;;;;;;;4993195;28;20515;-65
2023/07/26 04:31:35;;;;;;;83.38;76.50;;;;;;;;;;5011645;28;20120;-64
2023/07/26 04:34:02;;;;;;;88.65;80.85;;;;;;;;;;4992478;28;20078;-65
2023/07/26 04:36:29;;;;;;;89.50;82.13;;;;;;;;;;5010567;28;20042;-65
2023/07/26 04:38:56;;;;;;;102.53;92.57;;;;;;;;;;5009587;28;20033;-65
2023/07/26 04:41:23;;;;;;;93.10;85.50;;;;;;;;;;4992526;28;20191;-65
2023/07/26 04:43:50;;;;;;;492.70;115.20;;;;;;;;;;5010526;28;20049;-66
2023/07/26 04:46:17;;;;;;;102.85;93.93;;;;;;;;;;5010375;28;20100;-65
2023/07/26 04:48:44;;;;;;;112.30;102.32;;;;;;;;;;5010061;28;20050;-67
2023/07/26 04:51:11;;;;;;;108.28;100.35;;;;;;;;;;5009795;28;20070;-65
2023/07/26 04:53:37;;;;;;;116.03;105.70;;;;;;;;;;5010646;28;20046;-64
2023/07/26 04:56:05;;;;;;;113.47;103.22;;;;;;;;;;4990878;28;20568;-68
2023/07/26 04:58:32;;;;;;;130.60;118.28;;;;;;;;;;4996742;28;20049;-66
2023/07/26 05:00:59;;;;;;;104.32;95.72;;;;;;;;;;5013737;28;20046;-64
2023/07/26 05:03:25;;;;;;;108.13;98.97;;;;;;;;;;5013999;28;20077;-62
2023/07/26 05:05:52;;;;;;;117.82;108.03;;;;;;;;;;5012721;28;20049;-64
2023/07/26 05:08:21;;;;;;;137.35;108.72;;;;;;;;;;5014291;28;20041;-64
2023/07/26 05:10:50;;;;;;;113.13;103.63;;;;;;;;;;4997511;28;20479;-63
2023/07/26 05:13:17;;;;;;;113.75;105.93;;;;;;;;;;5002462;28;20053;-64
2023/07/26 05:15:44;;;;;;;108.78;100.05;;;;;;;;;;5013601;28;20054;-67
2023/07/26 05:18:14;;;;;;;108.85;97.93;;;;;;;;;;4995967;28;20455;-64
2023/07/26 05:20:42;;;;;;;110.47;100.88;;;;;;;;;;4992670;28;20483;-64
2023/07/26 05:23:09;;;;;;;123.05;104.80;;;;;;;;;;5013966;28;20116;-69
2023/07/26 05:25:37;;;;;;;103.55;94.97;;;;;;;;;;5012853;28;20050;-66
2023/07/26 05:28:04;;;;;;;111.15;102.10;;;;;;;;;;5014241;28;20130;-63
2023/07/26 05:30:31;;;;;;;102.85;94.88;;;;;;;;;;5011615;28;20065;-64
2023/07/26 05:32:58;;;;;;;112.78;102.15;;;;;;;;;;5013487;28;20046;-64
2023/07/26 05:35:25;;;;;;;122.05;111.25;;;;;;;;;;5004098;28;20058;-64
2023/07/26 05:37:53;;;;;;;120.40;109.82;;;;;;;;;;5014466;28;20053;-64
2023/07/26 05:40:23;;;;;;;105.55;96.97;;;;;;;;;;5013005;28;20042;-64
2023/07/26 05:42:50;;;;;;;109.18;100.40;;;;;;;;;;4992481;28;20038;-63
2023/07/26 05:45:17;;;;;;;94.05;87.55;;;;;;;;;;5011701;28;20557;-64
2023/07/26 05:47:44;;;;;;;94.63;86.20;;;;;;;;;;5008329;28;20045;-64
2023/07/26 05:50:11;;;;;;;130.13;84.72;;;;;;;;;;5003266;28;20054;-63
2023/07/26 05:52:38;;;;;;;92.20;83.15;;;;;;;;;;5012400;28;20133;-64
2023/07/26 05:55:06;;;;;;;88.97;80.47;;;;;;;;;;5010842;28;20041;-65
2023/07/26 05:57:33;;;;;;;104.28;93.22;;;;;;;;;;5012724;28;20042;-64
2023/07/26 06:00:00;;;;;;;98.55;89.80;;;;;;;;;;5013174;28;20124;-63
2023/07/26 06:02:37;;;;;;;112.07;101.75;;;;;;;;;;5012899;28;20057;-63
2023/07/26 06:05:05;;;;;;;116.90;105.15;;;;;;;;;;4995709;28;20053;-66
2023/07/26 06:07:32;;;;;;;115.82;107.60;;;;;;;;;;5008369;28;20046;-64
2023/07/26 06:09:58;;;;;;;123.47;101.53;;;;;;;;;;5010138;28;20038;-67
2023/07/26 06:12:25;;;;;;;114.90;104.07;;;;;;;;;;5008672;28;20056;-66
2023/07/26 06:14:52;;;;;;;112.43;101.43;;;;;;;;;;5012272;28;20052;-66
2023/07/26 06:17:19;;;;;;;142.13;112.10;;;;;;;;;;5012208;28;20038;-64
2023/07/26 06:19:45;;;;;;;121.18;111.45;;;;;;;;;;4993270;28;20062;-63
2023/07/26 06:22:12;;;;;;;123.18;111.78;;;;;;;;;;5012261;28;20050;-64
2023/07/26 06:24:39;;;;;;;127.82;118.28;;;;;;;;;;5012244;28;20091;-66
2023/07/26 06:27:06;;;;;;;121.68;111.20;;;;;;;;;;5012401;28;20057;-68
2023/07/26 06:29:35;;;;;;;118.22;108.43;;;;;;;;;;5012902;28;20048;-63
2023/07/26 06:32:01;;;;;;;118.90;109.32;;;;;;;;;;4994872;28;20038;-65
2023/07/26 06:34:28;;;;;;;124.65;114.93;;;;;;;;;;5012667;28;20495;-63
2023/07/26 06:36:55;;;;;;;127.68;117.20;;;;;;;;;;5012804;28;20053;-63
2023/07/26 06:39:24;;;;;;;132.45;118.72;;;;;;;;;;5008432;28;20082;-63
2023/07/26 06:41:51;;;;;;;121.47;109.95;;;;;;;;;;5012308;28;20038;-65
2023/07/26 06:44:18;;;;;;;155.52;113.40;;;;;;;;;;4994624;28;20046;-68
2023/07/26 06:46:45;;;;;;;103.82;96.07;;;;;;;;;;5011438;28;20122;-63
2023/07/26 06:49:11;;;;;;;110.30;100.88;;;;;;;;;;5001647;28;20046;-65
2023/07/26 06:51:38;;;;;;;138.77;97.57;;;;;;;;;;4990936;28;20042;-64
2023/07/26 06:54:05;;;;;;;116.70;106.10;;;;;;;;;;5011756;28;20053;-64
2023/07/26 06:56:32;;;;;;;485.48;131.80;;;;;;;;;;5012280;28;20069;-62
2023/07/26 06:58:59;;;;;;;98.90;91.93;;;;;;;;;;5013346;28;20042;-62
2023/07/26 07:01:25;;;;;;;102.38;94.07;;;;;;;;;;5011927;28;20132;-64
2023/07/26 07:03:52;;;;;;;114.38;103.95;;;;;;;;;;5012044;28;20061;-63
2023/07/26 07:06:38;;;;;;;129.07;103.43;;;;;;;;;;5007845;28;20468;-64
2023/07/26 07:09:05;;;;;;;110.95;99.72;;;;;;;;;;5011577;28;20526;-63
2023/07/26 07:11:34;;;;;;;105.88;97.40;;;;;;;;;;5008727;28;20392;-63
2023/07/26 07:14:02;;;;;;;281.75;108.72;;;;;;;;;;4994989;28;20050;-63
2023/07/26 07:16:29;;;;;;;111.88;100.10;;;;;;;;;;4993989;28;20100;-62
2023/07/26 07:18:56;;;;;;;103.63;93.63;;;;;;;;;;5011471;28;20038;-64
2023/07/26 07:21:23;;;;;;;101.53;90.10;;;;;;;;;;5010752;28;20049;-64
2023/07/26 07:23:52;;;;;;;89.22;80.30;;;;;;;;;;5011542;28;20052;-63
2023/07/26 07:26:19;;;;;;;111.38;85.90;;;;;;;;;;5007923;28;20049;-63
2023/07/26 07:28:45;;;;;;;91.18;81.97;;;;;;;;;;5010138;28;20046;-66
2023/07/26 07:31:12;;;;;;;91.43;82.13;;;;;;;;;;5008572;28;20096;-64
2023/07/26 07:33:39;;;;;;;231.52;81.60;;;;;;;;;;5010940;28;20064;-64
2023/07/26 07:36:06;;;;;;;80.82;72.57;;;;;;;;;;4999986;28;20154;-65
2023/07/26 07:38:33;;;;;;;84.88;77.38;;;;;;;;;;4977492;28;20045;-63
2023/07/26 07:41:00;;;;;;;197.40;72.63;;;;;;;;;;5009603;28;20046;-66
2023/07/26 07:43:27;;;;;;;75.32;68.15;;;;;;;;;;5010714;28;20038;-65
2023/07/26 07:45:54;;;;;;;224.48;82.25;;;;;;;;;;5010790;28;20073;-65
2023/07/26 07:48:21;;;;;;;299.63;96.25;;;;;;;;;;5006523;28;20120;-61
2023/07/26 07:50:55;;;;;;;105.53;84.60;;;;;;;;;;4992871;28;20057;-66
2023/07/26 07:53:22;;;;;;;194.85;82.60;;;;;;;;;;4993078;28;20042;-66
2023/07/26 07:55:50;;;;;;;159.52;72.60;;;;;;;;;;5011825;28;20042;-66
2023/07/26 07:58:17;;;;;;;487.75;103.70;;;;;;;;;;5010389;28;20415;-65
2023/07/26 08:00:44;;;;;;;86.05;79.50;;;;;;;;;;4990035;28;20049;-65
2023/07/26 08:03:11;;;;;;;86.93;78.10;;;;;;;;;;4992332;28;20399;-65
2023/07/26 08:05:38;;;;;;;78.85;71.75;;;;;;;;;;4991419;28;20038;-65
2023/07/26 08:08:06;;;;;;;84.97;77.57;;;;;;;;;;5010903;28;20057;-70
2023/07/26 08:10:33;;;;;;;85.28;76.88;;;;;;;;;;5008898;28;20132;-65
2023/07/26 08:13:00;;;;;;;76.57;69.60;;;;;;;;;;5010734;28;20046;-65
2023/07/26 08:15:32;;;;;;;86.95;78.75;;;;;;;;;;5010036;28;20042;-65
2023/07/26 08:17:59;;;;;;;;;;;;;;;;;;5011092;28;20050;-65
2023/07/26 08:20:26;;;;;;;86.43;76.82;;;;;;;;;;5001337;28;19933;-65
2023/07/26 08:22:53;;;;;;;89.32;79.75;;;;;;;;;;4992771;28;20050;-65
2023/07/26 08:25:25;;;;;;;93.22;83.10;;;;;;;;;;5010048;28;20081;-65
2023/07/26 08:27:52;;;;;;;89.32;79.90;;;;;;;;;;5010424;28;20062;-66
2023/07/26 08:30:19;;;;;;;109.28;84.25;;;;;;;;;;4998899;28;20049;-65
2023/07/26 08:32:45;;;;;;;100.50;89.47;;;;;;;;;;4994966;28;20499;-65
2023/07/26 08:35:12;;;;;;;128.00;92.65;;;;;;;;;;5010692;28;20042;-67
2023/07/26 08:37:39;;;;;;;89.97;82.55;;;;;;;;;;5014979;28;20054;-65
2023/07/26 08:40:06;;;;;;;96.75;87.97;;;;;;;;;;5014177;28;20092;-66
2023/07/26 08:42:33;;;;;;;142.40;89.28;;;;;;;;;;5011293;28;20045;-65
2023/07/26 08:45:01;;;;;;;102.68;92.88;;;;;;;;;;4979969;28;20046;-66
2023/07/26 08:47:28;;;;;;;101.65;91.38;;;;;;;;;;5012986;28;20038;-65
2023/07/26 08:49:56;;;;;;;100.15;90.50;;;;;;;;;;5014506;28;20056;-66
2023/07/26 08:52:24;;;;;;;110.45;96.03;;;;;;;;;;4994602;28;20049;-67
2023/07/26 08:54:52;;;;;;;366.58;108.10;;;;;;;;;;5013184;28;20096;-66
2023/07/26 08:57:19;;;;;;;94.22;84.53;;;;;;;;;;5003327;28;20050;-65
2023/07/26 08:59:46;;;;;;;97.80;88.97;;;;;;;;;;5005550;28;20400;-65
2023/07/26 09:02:14;;;;;;;144.48;85.28;;;;;;;;;;4995843;28;20058;-68
2023/07/26 09:04:41;;;;;;;86.65;77.85;;;;;;;;;;4993692;28;20426;-67
2023/07/26 09:07:08;;;;;;;93.20;82.93;;;;;;;;;;5012999;28;20419;-65
2023/07/26 09:09:36;;;;;;;87.70;79.35;;;;;;;;;;5009604;28;20492;-66
2023/07/26 09:12:03;;;;;;;88.03;79.43;;;;;;;;;;5013726;28;20053;-65
2023/07/26 09:14:31;;;;;;;89.57;78.10;;;;;;;;;;5013560;28;20042;-65
2023/07/26 09:16:59;;;;;;;95.40;84.80;;;;;;;;;;5014286;28;20511;-67
2023/07/26 09:19:33;;;;;;;91.97;83.03;;;;;;;;;;5013062;28;20053;-65
2023/07/26 09:22:01;;;;;;;86.97;78.35;;;;;;;;;;5013170;28;20061;-65
2023/07/26 09:24:35;;;;;;;95.28;85.45;;;;;;;;;;4995080;28;20042;-65
2023/07/26 09:27:06;;;;;;;100.35;90.07;;;;;;;;;;5009404;28;20135;-65
2023/07/26 09:29:34;;;;;;;92.88;83.28;;;;;;;;;;5013618;28;20553;-65
2023/07/26 09:32:01;;;;;;;89.82;80.32;;;;;;;;;;5014205;28;20407;-65
2023/07/26 09:34:31;;;;;;;271.02;85.13;;;;;;;;;;5012925;28;20050;-65
2023/07/26 09:36:58;;;;;;;90.43;82.88;;;;;;;;;;5012974;28;20552;-67
2023/07/26 09:39:26;;;;;;;109.28;75.40;;;;;;;;;;4993683;28;20665;-65
2023/07/26 09:42:09;;;;;;;78.85;70.13;;;;;;;;;;5013306;28;20479;-65
2023/07/26 09:44:36;;;;;;;82.70;74.75;;;;;;;;;;5004453;28;20121;-66
2023/07/26 09:47:03;;;;;;;93.10;77.68;;;;;;;;;;5012674;28;20042;-65
2023/07/26 09:49:30;;;;;;;86.43;77.32;;;;;;;;;;5009116;28;20062;-65
2023/07/26 09:51:59;;;;;;;83.35;75.50;;;;;;;;;;5012989;28;20096;-65
2023/07/26 09:54:30;;;;;;;76.30;68.10;;;;;;;;;;4994807;28;20049;-66
2023/07/26 09:57:01;;;;;;;80.40;72.75;;;;;;;;;;5007662;28;20053;-65
2023/07/26 09:59:29;;;;;;;94.95;76.38;;;;;;;;;;4994651;28;20041;-67
2023/07/26 10:01:59;;;;;;;82.13;74.88;;;;;;;;;;4992436;28;20082;-65
2023/07/26 10:04:46;;;;;;;82.90;74.13;;;;;;;;;;4993715;28;20599;-66
2023/07/26 10:07:13;;;;;;;89.10;72.20;;;;;;;;;;4989714;28;20069;-64
2023/07/26 10:09:43;;;;;;;85.75;67.80;;;;;;;;;;4992994;28;20069;-67
2023/07/26 10:12:10;;;;;;;74.97;68.85;;;;;;;;;;4993294;28;20049;-67
2023/07/26 10:14:38;;;;;;;83.85;75.75;;;;;;;;;;4992247;28;20046;-65
2023/07/26 10:17:05;;;;;;;77.15;69.40;;;;;;;;;;4991045;28;20133;-65
2023/07/26 10:19:32;;;;;;;77.07;69.63;;;;;;;;;;4993397;28;20074;-64
2023/07/26 10:21:59;;;;;;;209.40;73.32;;;;;;;;;;4992987;28;20484;-65
2023/07/26 10:24:26;;;;;;;148.43;80.95;;;;;;;;;;4992985;28;20488;-66
2023/07/26 10:26:53;;;;;;;80.55;68.32;;;;;;;;;;4976590;28;20051;-65
2023/07/26 10:29:20;;;;;;;122.35;78.25;;;;;;;;;;4992815;28;20154;-66
2023/07/26 10:31:58;;;;;;;73.93;66.78;;;;;;;;;;4992965;28;20108;-63
2023/07/26 10:34:25;;;;;;;79.22;72.18;;;;;;;;;;4991829;28;20053;-66
2023/07/26 10:36:52;;;;;;;226.57;85.15;;;;;;;;;;4992875;28;20048;-65
2023/07/26 10:39:27;;;;;;;136.30;69.82;;;;;;;;;;4991177;28;20050;-71
2023/07/26 10:41:54;;;;;;;97.30;71.25;;;;;;;;;;4991224;28;20042;-65
2023/07/26 10:44:21;;;;;;;305.73;88.22;;;;;;;;;;4991432;28;20043;-66
2023/07/26 10:46:59;;;;;;;91.38;70.68;;;;;;;;;;4993256;28;20407;-66
2023/07/26 10:49:30;;;;;;;76.45;67.88;;;;;;;;;;4991462;28;20042;-64
2023/07/26 10:51:58;;;;;;;75.32;67.63;;;;;;;;;;4991947;28;20042;-67
2023/07/26 10:54:38;;;;;;;80.28;70.55;;;;;;;;;;4991536;28;20042;-66
2023/07/26 10:57:18;;;;;;;70.85;63.42;;;;;;;;;;4988271;28;20081;-69
2023/07/26 10:59:54;;;;;;;75.32;64.57;;;;;;;;;;4990862;28;20492;-67
2023/07/26 11:02:39;;;;;;;131.25;71.22;;;;;;;;;;4998183;28;20058;-66
2023/07/26 11:05:09;;;;;;;73.85;62.15;;;;;;;;;;5011954;28;20107;-67
2023/07/26 11:07:55;;;;;;;74.75;66.85;;;;;;;;;;5012132;28;20292;-67
2023/07/26 11:10:24;;;;;;;73.72;66.65;;;;;;;;;;5010240;28;20096;-67
2023/07/26 11:13:03;;;;;;;66.25;60.75;;;;;;;;;;5012029;28;20526;-67
2023/07/26 11:15:30;;;;;;;95.00;74.75;;;;;;;;;;5008527;28;20042;-67
2023/07/26 11:18:18;;;;;;;80.55;65.93;;;;;;;;;;5011769;28;20045;-67
2023/07/26 11:20:52;;;;;;;174.90;162.23;;;;;;;;;;5007674;28;20084;-63
2023/07/26 11:23:19;;;;;;;269.20;242.15;;;;;;;;;;5009560;28;20069;-64
2023/07/26 11:25:46;;;;;;;208.10;193.88;;;;;;;;;;5012426;28;20046;-64
2023/07/26 11:28:14;;;;;;;213.02;197.35;;;;;;;;;;5011094;28;20464;-63
2023/07/26 11:30:51;;;;;;;217.40;203.02;;;;;;;;;;5011470;28;20041;-66
2023/07/26 11:33:34;;;;;;;260.95;221.82;;;;;;;;;;5011179;28;20037;-65
2023/07/26 11:36:02;;;;;;;238.75;220.90;;;;;;;;;;5009399;28;20042;-65
2023/07/26 11:38:29;;;;;;;248.35;228.98;;;;;;;;;;5011486;28;20050;-64
2023/07/26 11:40:56;;;;;;;243.52;226.75;;;;;;;;;;5012052;28;20042;-67
2023/07/26 11:43:25;;;;;;;239.55;223.25;;;;;;;;;;5010872;28;20045;-64
2023/07/26 11:45:52;;;;;;;249.98;232.68;;;;;;;;;;4993138;28;20041;-66
2023/07/26 11:48:19;;;;;;;257.88;239.27;;;;;;;;;;5010233;28;20109;-65
2023/07/26 11:50:46;;;;;;;262.13;244.07;;;;;;;;;;4993585;28;20045;-66
2023/07/26 11:53:15;;;;;;;286.95;262.95;;;;;;;;;;5011532;28;20046;-66
2023/07/26 11:56:01;;;;;;;279.67;260.15;;;;;;;;;;4996817;28;20483;-66
2023/07/26 11:58:32;;;;;;;308.73;287.15;;;;;;;;;;5000164;28;20502;-66
2023/07/26 12:00:59;;;;;;;317.73;296.23;;;;;;;;;;5007436;28;20050;-66
2023/07/26 12:03:27;;;;;;;341.50;315.50;;;;;;;;;;5010601;28;20054;-66
2023/07/26 12:05:54;;;;;;;339.40;315.83;;;;;;;;;;5010995;28;20034;-65
2023/07/26 12:08:24;;;;;;;366.05;337.83;;;;;;;;;;4992869;28;20073;-66
2023/07/26 12:10:50;;;;;;;417.92;381.75;;;;;;;;;;5007801;28;20038;-65
2023/07/26 12:13:18;;;;;;;417.88;376.85;;;;;;;;;;5008867;28;20491;-64
2023/07/26 12:15:52;;;;;;;416.25;386.67;;;;;;;;;;5010195;28;20049;-66
2023/07/26 12:18:20;;;;;;;446.65;414.20;;;;;;;;;;4998002;28;20057;-64
2023/07/26 12:21:14;;;;;;;481.90;447.50;;;;;;;;;;4988858;28;20483;-65
2023/07/26 12:23:53;;;;;;;486.38;452.63;;;;;;;;;;5002634;28;20216;-68
2023/07/26 12:26:21;;;;;;;509.92;470.58;;;;;;;;;;5010427;28;20092;-67
2023/07/26 12:28:48;;;;;;;509.50;472.05;;;;;;;;;;5011578;28;20046;-64
2023/07/26 12:31:25;;;;;;;483.63;449.88;;;;;;;;;;5010259;28;20053;-67
2023/07/26 12:33:54;;;;;;;455.33;423.80;;;;;;;;;;5006882;28;20072;-59
2023/07/26 12:36:21;;;;;;;418.70;389.95;;;;;;;;;;4989948;28;20035;-59
2023/07/26 12:38:48;;;;;;;402.65;372.00;;;;;;;;;;5009982;28;20042;-58
2023/07/26 12:41:15;;;;;;;385.70;353.50;;;;;;;;;;5003020;28;20045;-59
2023/07/26 12:43:42;;;;;;;343.27;318.25;;;;;;;;;;4993502;28;20050;-58
2023/07/26 12:46:13;;;;;;;324.92;302.85;;;;;;;;;;5010051;28;20048;-59
2023/07/26 12:48:40;;;;;;;323.67;303.30;;;;;;;;;;4991605;28;20100;-58
2023/07/26 12:51:07;;;;;;;341.52;316.77;;;;;;;;;;5010058;28;20042;-61
2023/07/26 12:53:33;;;;;;;94.85;61.78;;;;;;;;;;5010036;28;20054;-63
2023/07/26 12:56:00;;;;;;;63.30;51.22;;;;;;;;;;5011991;28;20038;-65
2023/07/26 12:58:27;;;;;;;87.82;53.25;;;;;;;;;;5010005;28;20053;-67
2023/07/26 13:00:54;;;;;;;57.10;40.40;;;;;;;;;;5009567;28;20057;-61
2023/07/26 13:03:21;;;;;;;77.82;41.50;;;;;;;;;;5009301;28;20139;-64
2023/07/26 13:05:50;;;;;;;61.95;40.55;;;;;;;;;;4988361;28;20108;-63
2023/07/26 13:08:17;;;;;;;152.07;48.05;;;;;;;;;;5000027;28;20038;-67
2023/07/26 13:10:44;;;;;;;58.08;32.65;;;;;;;;;;5008428;28;20384;-63
2023/07/26 13:13:11;;;;;;;48.58;24.63;;;;;;;;;;5004475;28;20116;-59
2023/07/26 13:15:38;;;;;;;61.45;23.10;;;;;;;;;;5009162;28;20049;-60
2023/07/26 13:18:04;;;;;;;39.10;21.23;;;;;;;;;;4992751;28;20435;-58
2023/07/26 13:20:31;;;;;;;68.80;23.50;;;;;;;;;;5012920;28;20046;-59
2023/07/26 13:22:58;;;;;;;88.20;21.35;;;;;;;;;;4995366;28;20137;-59
2023/07/26 13:25:25;;;;;;;38.03;14.05;;;;;;;;;;5013082;28;20050;-58
2023/07/26 13:27:52;;;;;;;57.92;15.32;;;;;;;;;;5013093;28;20041;-62
2023/07/26 13:30:18;;;;;;;57.10;16.20;;;;;;;;;;5013095;28;20087;-63
2023/07/26 13:32:45;;;;;;;56.80;15.93;;;;;;;;;;5012851;28;20053;-62
2023/07/26 13:35:13;;;;;;;75.63;14.82;;;;;;;;;;5013612;28;20404;-62
2023/07/26 13:37:39;;;;;;;46.20;12.90;;;;;;;;;;5013527;28;20069;-63
2023/07/26 13:40:07;;;;;;;47.58;14.95;;;;;;;;;;5012363;28;20485;-61
2023/07/26 13:42:34;;;;;;;67.28;26.75;;;;;;;;;;5012539;28;20056;-63
2023/07/26 13:45:01;;;;;;;61.97;13.68;;;;;;;;;;5009041;28;20069;-62
2023/07/26 13:47:31;;;;;;;115.45;22.42;;;;;;;;;;5012039;28;20132;-64
2023/07/26 13:49:59;;;;;;;42.00;14.20;;;;;;;;;;5013820;28;20138;-62
2023/07/26 13:52:26;;;;;;;53.83;19.10;;;;;;;;;;5012693;28;20054;-63
2023/07/26 13:54:53;;;;;;;39.45;9.52;;;;;;;;;;5012650;28;20065;-62
2023/07/26 13:57:20;;;;;;;59.53;12.38;;;;;;;;;;5012745;28;20045;-62
2023/07/26 13:59:48;;;;;;;47.90;10.70;;;;;;;;;;4994881;28;20054;-62
2023/07/26 14:02:15;;;;;;;42.22;10.80;;;;;;;;;;5012256;28;20415;-61
2023/07/26 14:04:42;;;;;;;28.92;8.98;;;;;;;;;;5013190;28;20111;-68
2023/07/26 14:07:09;;;;;;;47.13;10.10;;;;;;;;;;5000255;28;20053;-63
2023/07/26 14:09:36;;;;;;;29.10;9.38;;;;;;;;;;5012567;28;20450;-63
2023/07/26 14:12:03;;;;;;;41.33;10.43;;;;;;;;;;5012155;28;20484;-63
2023/07/26 14:14:29;;;;;;;121.55;18.70;;;;;;;;;;5012101;28;20600;-64